Time;durP1;ratioP1;P1;durP2;ratioP2;P2;SDS_P1;SDS_P2;PMS_P1;PMS_P2;Temp;Humidity;BMP_temperature;BMP_pressure;BME280_temperature;BME280_humidity;BME280_pressure;Samples;Min_cycle;Max_cycle;Signal;HPM_P1;HPM_P2
2022/09/16 00:01:18;;;;;;;4.63;3.55;;;;;;;26.23;44.19;98818.41;5054156;28;20017;-77
2022/09/16 00:03:44;;;;;;;7.18;3.42;;;;;;;26.39;44.09;98845.25;5053864;28;20100;-77
2022/09/16 00:06:20;;;;;;;7.82;3.53;;;;;;;26.34;44.40;98838.00;5053687;28;20421;-77
2022/09/16 00:08:47;;;;;;;5.78;3.03;;;;;;;25.97;44.15;98785.56;5053742;28;20142;-77
2022/09/16 00:11:14;;;;;;;7.57;3.53;;;;;;;25.71;44.17;98765.47;5052779;28;20032;-77
2022/09/16 00:13:39;;;;;;;7.00;3.40;;;;;;;26.15;44.10;98810.19;5053522;28;20032;-77
2022/09/16 00:16:10;;;;;;;7.28;3.70;;;;;;;26.26;44.11;98835.97;5053575;28;20025;-77
2022/09/16 00:18:36;;;;;;;8.48;3.63;;;;;;;25.97;44.29;98795.59;5052522;28;20091;-77
2022/09/16 00:21:01;;;;;;;8.80;3.38;;;;;;;26.21;44.30;98836.84;5053270;28;20425;-77
2022/09/16 00:23:27;;;;;;;9.25;3.35;;;;;;;26.17;44.21;98845.88;5053258;28;20028;-77
2022/09/16 00:25:54;;;;;;;6.00;3.53;;;;;;;26.14;44.44;98838.34;5051936;28;20021;-77
2022/09/16 00:28:21;;;;;;;5.88;3.55;;;;;;;26.08;44.38;98834.13;5053369;28;20532;-77
2022/09/16 00:30:49;;;;;;;8.15;3.42;;;;;;;25.19;44.41;98694.38;5053104;28;20033;-77
2022/09/16 00:33:16;;;;;;;9.80;3.65;;;;;;;26.08;44.77;98829.50;5053267;28;20413;-77
2022/09/16 00:35:42;;;;;;;7.38;3.55;;;;;;;26.08;44.47;98839.53;5053542;28;20025;-77
2022/09/16 00:38:07;;;;;;;5.18;3.55;;;;;;;25.81;44.64;98805.88;5052011;28;20421;-77
2022/09/16 00:40:33;;;;;;;10.20;3.85;;;;;;;24.43;44.40;98592.84;5051942;28;20106;-77
2022/09/16 00:42:59;;;;;;;5.40;3.60;;;;;;;26.06;44.51;98841.72;5053163;28;20032;-77
2022/09/16 00:45:30;;;;;;;7.47;3.65;;;;;;;26.06;44.49;98839.03;5053104;28;20028;-77
2022/09/16 00:48:00;;;;;;;5.68;3.55;;;;;;;25.56;44.76;98779.22;5053329;28;20456;-77
2022/09/16 00:50:35;;;;;;;7.27;3.60;;;;;;;25.98;44.64;98841.28;5051916;28;20424;-77
2022/09/16 00:53:01;;;;;;;6.35;3.72;;;;;;;25.30;44.96;98738.28;5053760;28;20298;-77
2022/09/16 00:55:29;;;;;;;8.55;3.90;;;;;;;25.31;44.82;98745.28;5053774;28;20029;-77
2022/09/16 00:58:01;;;;;;;6.05;3.72;;;;;;;25.94;45.08;98840.25;5052263;28;20029;-77
2022/09/16 01:00:27;;;;;;;5.85;3.70;;;;;;;25.83;44.97;98868.56;5059457;28;20056;-77
2022/09/16 01:02:52;;;;;;;4.85;3.08;;;;;;;25.62;44.85;98797.75;5051339;28;20028;-77
2022/09/16 01:05:22;;;;;;;5.22;3.22;;;;;;;25.52;45.06;98799.81;5052650;28;20029;-77
2022/09/16 01:07:50;;;;;;;8.40;4.00;;;;;;;25.90;44.87;98843.84;5052782;28;20013;-77
2022/09/16 01:10:18;;;;;;;4.60;3.22;;;;;;;25.86;45.19;98857.16;5051410;28;20060;-77
2022/09/16 01:12:47;;;;;;;6.07;3.42;;;;;;;25.82;45.47;98845.34;5052370;28;20078;-77
2022/09/16 01:15:14;;;;;;;7.50;3.65;;;;;;;25.74;45.43;98851.41;5052503;28;20087;-77
2022/09/16 01:17:51;;;;;;;8.80;3.72;;;;;;;25.69;45.52;98856.91;5052776;28;20025;-77
2022/09/16 01:20:54;;;;;;;6.15;3.53;;;;;;;25.67;45.44;98867.19;5052623;28;20029;-77
2022/09/16 01:23:56;;;;;;;6.43;3.30;;;;;;;25.65;45.18;98855.84;5051049;28;20041;-77
2022/09/16 01:26:21;;;;;;;7.38;3.65;;;;;;;25.65;45.37;98858.56;5063943;28;20029;-77
2022/09/16 01:29:19;;;;;;;8.93;3.47;;;;;;;25.61;45.30;98857.53;5062311;28;20087;-77
2022/09/16 01:32:02;;;;;;;5.82;3.58;;;;;;;25.64;45.14;98859.66;5059506;28;20128;-77
2022/09/16 01:34:33;;;;;;;10.20;3.90;;;;;;;25.64;45.06;98852.34;5052309;28;20079;-77
2022/09/16 01:36:59;;;;;;;6.97;3.50;;;;;;;25.58;45.03;98858.91;5052047;28;20031;-77
2022/09/16 01:39:53;;;;;;;7.55;3.17;;;;;;;25.16;45.06;98799.50;5050817;28;20021;-77
2022/09/16 01:42:46;;;;;;;5.97;3.40;;;;;;;25.53;44.95;98863.59;5057145;28;20056;-77
2022/09/16 01:45:54;;;;;;;5.50;3.28;;;;;;;25.19;44.44;98813.25;5052007;28;20052;-77
2022/09/16 01:48:38;;;;;;;5.85;3.38;;;;;;;25.43;44.77;98855.63;5056656;28;20123;-77
2022/09/16 01:51:31;;;;;;;6.47;2.97;;;;;;;25.45;44.28;98861.56;5052070;28;20078;-77
2022/09/16 01:54:07;;;;;;;5.05;3.03;;;;;;;25.40;44.40;98867.03;5051593;28;20025;-77
2022/09/16 01:56:43;;;;;;;6.65;3.20;;;;;;;25.36;44.48;98866.00;5051724;28;20104;-77
2022/09/16 01:59:27;;;;;;;5.47;3.00;;;;;;;24.78;44.39;98798.63;5052121;28;20032;-77
2022/09/16 02:02:05;;;;;;;8.13;3.50;;;;;;;25.24;44.44;98877.22;5051843;28;20029;-77
2022/09/16 02:04:35;;;;;;;6.82;2.95;;;;;;;25.21;44.22;98875.88;5051517;28;20040;-77
2022/09/16 02:07:05;;;;;;;6.95;3.13;;;;;;;25.07;44.60;98849.88;5050290;28;20025;-77
2022/09/16 02:09:36;;;;;;;6.97;3.42;;;;;;;24.81;44.57;98817.75;5051403;28;20508;-77
2022/09/16 02:12:07;;;;;;;8.73;3.42;;;;;;;25.12;44.39;98871.41;5051616;28;20036;-77
2022/09/16 02:14:39;;;;;;;8.32;3.33;;;;;;;24.66;44.46;98812.53;5050170;28;20115;-77
2022/09/16 02:17:09;;;;;;;6.68;3.78;;;;;;;24.31;44.63;98749.75;5050208;28;20090;-77
2022/09/16 02:19:51;;;;;;;6.45;3.35;;;;;;;24.45;44.45;98790.34;5051498;28;20104;-77
2022/09/16 02:22:30;;;;;;;8.35;3.53;;;;;;;25.11;44.21;98881.44;5051611;28;20025;-77
2022/09/16 02:24:59;;;;;;;6.40;3.88;;;;;;;24.78;44.17;98826.44;5051667;28;20486;-77
2022/09/16 02:27:28;;;;;;;9.13;3.65;;;;;;;25.15;44.06;98887.84;5051375;28;20029;-77
2022/09/16 02:30:04;;;;;;;11.50;3.75;;;;;;;25.16;44.10;98881.34;5051274;28;20029;-77
2022/09/16 02:32:35;;;;;;;7.53;3.78;;;;;;;24.86;44.23;98827.69;5051193;28;20028;-77
2022/09/16 02:35:02;;;;;;;;;;;;;;;24.97;44.27;98875.91;5055104;28;20547;-77
2022/09/16 02:37:35;;;;;;;7.65;3.72;;;;;;;24.49;44.09;98780.59;5055249;28;19909;-77
2022/09/16 02:40:12;;;;;;;8.15;4.07;;;;;;;24.61;44.40;98799.09;5055260;28;20056;-77
2022/09/16 02:42:38;;;;;;;6.63;3.75;;;;;;;25.09;44.56;98870.09;5055481;28;20029;-77
2022/09/16 02:45:04;;;;;;;6.05;3.90;;;;;;;24.98;44.57;98869.44;5055271;28;20064;-77
2022/09/16 02:47:37;;;;;;;6.03;3.30;;;;;;;24.47;44.79;98796.25;5055506;28;20409;-77
2022/09/16 02:50:02;;;;;;;10.27;4.10;;;;;;;25.03;45.18;98876.66;5053847;28;20421;-77
2022/09/16 02:52:42;;;;;;;8.93;4.03;;;;;;;24.66;44.96;98834.94;5055451;28;20033;-76
2022/09/16 02:55:26;;;;;;;11.55;3.83;;;;;;;25.01;44.82;98884.25;5053924;28;20455;-77
2022/09/16 02:57:52;;;;;;;8.55;3.67;;;;;;;25.04;44.76;98883.66;5055046;28;20025;-77
2022/09/16 03:00:18;;;;;;;9.35;3.72;;;;;;;24.09;44.77;98744.03;5054775;28;20592;-77
2022/09/16 03:02:43;;;;;;;10.63;4.25;;;;;;;24.62;44.73;98833.91;5055146;28;20017;-77
2022/09/16 03:05:09;;;;;;;10.32;3.75;;;;;;;23.02;44.68;98585.97;5053603;28;20024;-77
2022/09/16 03:07:36;;;;;;;10.02;3.92;;;;;;;24.89;44.69;98867.63;5054765;28;20526;-77
2022/09/16 03:10:02;;;;;;;10.52;3.55;;;;;;;24.80;44.63;98858.53;5054819;28;20044;-77
2022/09/16 03:12:48;;;;;;;8.60;3.70;;;;;;;25.00;44.54;98896.94;5053436;28;20478;-77
2022/09/16 03:15:38;;;;;;;9.23;3.17;;;;;;;24.99;44.55;98898.03;5054536;28;20427;-77
2022/09/16 03:18:26;;;;;;;6.20;3.85;;;;;;;24.97;44.90;98897.53;5054639;28;20036;-77
2022/09/16 03:21:22;;;;;;;6.07;3.85;;;;;;;24.94;44.49;98891.88;5061041;28;20041;-77
2022/09/16 03:24:07;;;;;;;10.57;3.90;;;;;;;24.61;44.75;98851.19;5054725;28;20025;-77
2022/09/16 03:26:38;;;;;;;6.50;3.63;;;;;;;24.89;44.53;98898.13;5054361;28;20031;-77
2022/09/16 03:29:11;;;;;;;;;;;;;;;24.64;45.28;98887.59;5054724;28;20039;-77
2022/09/16 03:31:50;;;;;;;7.22;3.22;;;;;;;24.55;44.78;98860.44;5054162;28;20316;-77
2022/09/16 03:34:36;;;;;;;9.63;3.83;;;;;;;24.78;44.86;98893.13;5054211;28;20474;-77
2022/09/16 03:37:05;;;;;;;11.02;4.00;;;;;;;24.76;44.87;98888.00;5054285;28;20096;-77
2022/09/16 03:39:32;;;;;;;8.70;3.75;;;;;;;23.96;44.98;98764.38;5054302;28;20107;-77
2022/09/16 03:42:02;;;;;;;6.25;3.97;;;;;;;24.74;45.12;98892.91;5053989;28;20033;-77
2022/09/16 03:44:36;;;;;;;9.88;3.90;;;;;;;24.69;45.31;98891.06;5053802;28;20410;-77
2022/09/16 03:47:03;;;;;;;7.07;3.90;;;;;;;24.67;44.88;98892.44;5053479;28;20421;-77
2022/09/16 03:49:29;;;;;;;9.73;4.15;;;;;;;24.29;44.91;98843.66;5053922;28;20025;-77
2022/09/16 03:51:55;;;;;;;9.55;3.97;;;;;;;24.66;45.22;98897.03;5053876;28;20102;-77
2022/09/16 03:54:20;;;;;;;8.10;4.05;;;;;;;24.07;45.06;98813.63;5053697;28;20032;-77
2022/09/16 03:56:46;;;;;;;8.38;3.67;;;;;;;24.64;45.00;98891.13;5053749;28;20021;-77
2022/09/16 03:59:11;;;;;;;9.95;3.97;;;;;;;24.09;45.06;98823.06;5053970;28;20064;-77
2022/09/16 04:01:37;;;;;;;8.32;3.70;;;;;;;24.55;45.07;98894.72;5053880;28;20029;-77
2022/09/16 04:04:02;;;;;;;11.65;4.22;;;;;;;24.29;45.38;98880.63;5054097;28;20032;-77
2022/09/16 04:06:28;;;;;;;10.10;3.72;;;;;;;24.25;45.26;98847.19;5054180;28;20108;-77
2022/09/16 04:08:56;;;;;;;8.85;4.15;;;;;;;24.12;45.45;98851.34;5053837;28;20494;-77
2022/09/16 04:11:21;;;;;;;13.10;4.40;;;;;;;24.38;45.51;98889.72;5052773;28;20024;-77
2022/09/16 04:13:47;;;;;;;10.77;4.10;;;;;;;24.11;45.53;98840.84;5053795;28;20379;-77
2022/09/16 04:16:19;;;;;;;12.38;4.70;;;;;;;24.52;45.64;98908.75;5053979;28;20036;-77
2022/09/16 04:18:44;;;;;;;9.18;4.22;;;;;;;24.21;45.76;98862.34;5054116;28;20099;-77
2022/09/16 04:21:10;;;;;;;11.95;4.53;;;;;;;24.26;45.52;98881.97;5062038;28;20102;-77
2022/09/16 04:23:35;;;;;;;11.60;4.38;;;;;;;23.89;45.88;98815.16;5065745;28;20031;-76
2022/09/16 04:26:02;;;;;;;9.70;4.05;;;;;;;23.90;45.92;98841.03;5054694;28;20028;-77
2022/09/16 04:28:31;;;;;;;8.63;3.78;;;;;;;24.35;45.87;98907.28;5051933;28;20029;-77
2022/09/16 04:31:01;;;;;;;10.35;4.30;;;;;;;24.38;45.90;98911.31;5053082;28;20112;-77
2022/09/16 04:33:29;;;;;;;12.50;4.18;;;;;;;24.03;45.71;98864.63;5053483;28;20495;-77
2022/09/16 04:36:04;;;;;;;16.27;4.97;;;;;;;24.27;46.07;98890.91;5053353;28;20025;-77
2022/09/16 04:38:30;;;;;;;10.65;4.43;;;;;;;24.41;45.83;98924.22;5052448;28;20028;-77
2022/09/16 04:41:03;;;;;;;10.65;4.43;;;;;;;24.38;45.95;98885.13;5053410;28;20053;-77
2022/09/16 04:43:29;;;;;;;16.60;4.80;;;;;;;24.29;46.02;98870.66;5052241;28;20032;-77
2022/09/16 04:45:54;;;;;;;14.18;5.10;;;;;;;24.50;46.05;98900.94;5054747;28;20025;-77
2022/09/16 04:48:20;;;;;;;12.30;5.80;;;;;;;23.96;46.19;98807.53;5066441;28;20508;-77
2022/09/16 04:50:45;;;;;;;12.48;4.95;;;;;;;23.88;45.86;98805.44;5059634;28;20021;-77
2022/09/16 04:53:11;;;;;;;13.13;4.90;;;;;;;24.59;46.23;98888.47;5053066;28;20068;-77
2022/09/16 04:55:36;;;;;;;11.65;5.57;;;;;;;24.24;45.86;98835.59;5052719;28;20021;-77
2022/09/16 04:58:02;;;;;;;11.98;4.85;;;;;;;24.63;46.01;98891.41;5052367;28;20016;-77
2022/09/16 05:00:27;;;;;;;14.73;4.90;;;;;;;24.20;46.18;98839.16;5052645;28;20031;-77
2022/09/16 05:02:53;;;;;;;13.68;4.88;;;;;;;24.65;46.13;98895.41;5051551;28;20108;-77
2022/09/16 05:05:19;;;;;;;16.95;5.80;;;;;;;24.43;46.51;98856.50;5052848;28;20110;-77
2022/09/16 05:07:45;;;;;;;11.00;5.38;;;;;;;24.64;45.84;98884.91;5052720;28;20023;-77
2022/09/16 05:10:10;;;;;;;12.40;4.60;;;;;;;24.74;46.05;98890.19;5052773;28;20017;-77
2022/09/16 05:12:36;;;;;;;10.20;4.85;;;;;;;24.32;46.21;98826.91;5052695;28;20040;-77
2022/09/16 05:15:02;;;;;;;10.98;5.40;;;;;;;24.26;45.96;98822.63;5051954;28;20029;-77
2022/09/16 05:17:30;;;;;;;15.02;5.65;;;;;;;24.15;45.64;98794.16;5052573;28;20029;-77
2022/09/16 05:19:56;;;;;;;18.45;6.57;;;;;;;24.43;45.69;98843.00;5052169;28;20115;-77
2022/09/16 05:22:22;;;;;;;11.73;5.30;;;;;;;24.21;45.63;98792.19;5052435;28;20162;-77
2022/09/16 05:24:48;;;;;;;12.18;5.88;;;;;;;24.90;45.34;98907.03;5052212;28;20017;-77
2022/09/16 05:27:14;;;;;;;17.23;5.75;;;;;;;24.25;45.82;98806.72;5052042;28;20472;-77
2022/09/16 05:29:40;;;;;;;14.07;5.40;;;;;;;24.64;45.50;98839.81;5052119;28;20027;-76
2022/09/16 05:32:06;;;;;;;12.18;5.10;;;;;;;24.74;45.60;98859.69;5051881;28;20447;-77
2022/09/16 05:34:32;;;;;;;19.77;5.70;;;;;;;25.01;45.63;98895.06;5050743;28;20025;-77
2022/09/16 05:36:59;;;;;;;11.50;5.45;;;;;;;24.50;45.45;98805.69;5052148;28;20383;-77
2022/09/16 05:39:24;;;;;;;14.70;5.22;;;;;;;24.64;45.41;98823.63;5046163;28;20098;-77
2022/09/16 05:41:54;;;;;;;16.60;6.40;;;;;;;24.89;45.45;98859.53;5044767;28;20497;-77
2022/09/16 05:44:19;;;;;;;14.88;6.05;;;;;;;24.58;45.34;98816.69;5052038;28;20025;-77
2022/09/16 05:46:46;;;;;;;14.40;5.63;;;;;;;24.65;45.22;98803.63;5052324;28;20080;-77
2022/09/16 05:49:11;;;;;;;10.70;6.10;;;;;;;25.12;45.48;98884.94;5051716;28;20412;-77
2022/09/16 05:51:38;;;;;;;11.65;6.15;;;;;;;25.23;45.08;98894.50;5051917;28;20025;-77
2022/09/16 05:54:04;;;;;;;12.93;6.72;;;;;;;25.27;45.23;98899.06;5051438;28;20098;-77
2022/09/16 05:56:30;;;;;;;13.82;6.50;;;;;;;24.96;45.38;98843.78;5051471;28;20477;-77
2022/09/16 05:58:59;;;;;;;10.90;5.95;;;;;;;25.26;45.54;98883.94;5043481;28;20453;-77
2022/09/16 06:01:31;;;;;;;11.27;6.80;;;;;;;25.41;45.53;98890.25;5031285;28;20490;-77
2022/09/16 06:04:00;;;;;;;9.27;5.72;;;;;;;25.38;45.65;98870.03;5031497;28;20034;-76
2022/09/16 06:06:37;;;;;;;17.48;6.30;;;;;;;25.59;45.75;98875.94;5034691;28;20021;-76
2022/09/16 06:09:12;;;;;;;28.77;8.15;;;;;;;25.67;45.62;98871.81;5047161;28;20056;-76
2022/09/16 06:11:43;;;;;;;39.42;17.60;;;;;;;25.45;45.65;98829.13;5050692;28;20529;-76
2022/09/16 06:14:09;;;;;;;45.22;15.68;;;;;;;25.63;45.75;98849.94;5050405;28;20052;-76
2022/09/16 06:16:35;;;;;;;22.35;11.45;;;;;;;25.89;45.79;98880.91;5038244;28;20083;-76
2022/09/16 06:19:04;;;;;;;15.80;8.07;;;;;;;25.77;45.96;98853.53;5031864;28;20076;-76
2022/09/16 06:21:29;;;;;;;14.07;10.10;;;;;;;26.01;46.04;98879.66;5033461;28;20025;-76
2022/09/16 06:23:55;;;;;;;16.70;8.50;;;;;;;25.90;45.89;98844.66;5051226;28;20544;-76
2022/09/16 06:26:23;;;;;;;10.85;6.80;;;;;;;26.17;45.63;98879.13;5051441;28;20103;-76
2022/09/16 06:28:50;;;;;;;8.23;5.88;;;;;;;26.27;45.51;98883.56;5050044;28;20083;-77
2022/09/16 06:31:20;;;;;;;14.15;8.63;;;;;;;25.89;45.15;98812.50;5050920;28;20032;-76
2022/09/16 06:33:46;;;;;;;16.88;8.45;;;;;;;26.27;45.17;98875.47;5038953;28;20485;-76
2022/09/16 06:36:17;;;;;;;10.18;8.68;;;;;;;26.48;44.61;98871.31;5049588;28;20033;-76
2022/09/16 06:38:44;;;;;;;13.35;8.70;;;;;;;26.56;44.52;98864.41;5049920;28;20061;-76
2022/09/16 06:41:11;;;;;;;6.47;4.53;;;;;;;26.66;43.57;98853.38;5049864;28;20584;-77
2022/09/16 06:43:37;;;;;;;11.20;7.35;;;;;;;26.75;43.36;98854.28;5051032;28;20086;-77
2022/09/16 06:46:06;;;;;;;11.52;9.57;;;;;;;26.14;43.42;98751.75;5051616;28;20063;-77
2022/09/16 06:48:35;;;;;;;7.60;4.82;;;;;;;26.61;43.00;98807.44;5051272;28;20029;-77
2022/09/16 06:51:06;;;;;;;8.57;5.43;;;;;;;27.01;42.84;98853.84;5032713;28;20056;-77
2022/09/16 06:53:32;;;;;;;10.68;6.57;;;;;;;26.59;42.84;98779.88;5029688;28;20127;-77
2022/09/16 06:56:03;;;;;;;9.05;4.20;;;;;;;27.18;42.26;98871.06;5031335;28;20125;-76
2022/09/16 06:58:31;;;;;;;6.20;4.60;;;;;;;27.03;41.91;98832.66;5031315;28;20032;-77
2022/09/16 07:00:57;;;;;;;7.43;6.38;;;;;;;26.69;41.67;98774.25;5031421;28;20029;-76
2022/09/16 07:03:23;;;;;;;11.10;6.65;;;;;;;27.12;41.58;98831.63;5050597;28;20013;-77
2022/09/16 07:06:02;;;;;;;7.68;6.07;;;;;;;26.94;41.61;98794.63;5051067;28;20438;-77
2022/09/16 07:08:28;;;;;;;12.93;6.65;;;;;;;26.79;41.79;98743.47;5029941;28;20148;-77
2022/09/16 07:10:58;;;;;;;16.20;10.73;;;;;;;27.45;41.11;98829.56;5031341;28;20028;-77
2022/09/16 07:13:24;;;;;;;9.40;5.70;;;;;;;26.96;41.04;98742.84;5031002;28;20076;-76
2022/09/16 07:15:49;;;;;;;13.68;6.78;;;;;;;27.79;40.67;98861.63;5030652;28;20041;-76
2022/09/16 07:18:14;;;;;;;11.70;6.97;;;;;;;27.28;40.41;98774.38;5045763;28;20112;-77
2022/09/16 07:20:40;;;;;;;9.55;6.53;;;;;;;27.67;40.02;98822.59;5032688;28;20083;-77
2022/09/16 07:23:05;;;;;;;7.63;4.85;;;;;;;27.72;39.59;98806.19;5045107;28;20017;-77
2022/09/16 07:25:30;;;;;;;11.02;8.13;;;;;;;28.19;39.92;98867.16;5047020;28;20418;-77
2022/09/16 07:27:56;;;;;;;7.03;4.00;;;;;;;28.01;39.20;98824.75;5051549;28;20028;-77
2022/09/16 07:30:22;;;;;;;6.40;3.45;;;;;;;28.28;38.88;98854.50;5051991;28;20032;-77
2022/09/16 07:32:47;;;;;;;5.10;3.30;;;;;;;28.15;38.40;98830.91;5051761;28;20154;-78
2022/09/16 07:35:13;;;;;;;13.32;4.97;;;;;;;28.26;38.66;98810.56;5051458;28;20017;-77
2022/09/16 07:37:38;;;;;;;6.65;3.67;;;;;;;28.30;38.57;98808.03;5047098;28;20056;-77
2022/09/16 07:40:04;;;;;;;6.65;3.55;;;;;;;28.25;37.32;98779.09;5048623;28;20267;-77
2022/09/16 07:42:30;;;;;;;7.88;3.70;;;;;;;28.80;37.27;98858.25;5056266;28;20033;-77
2022/09/16 07:44:55;;;;;;;11.85;6.72;;;;;;;28.74;36.90;98836.97;5068414;28;20063;-77
2022/09/16 07:47:20;;;;;;;8.45;3.72;;;;;;;28.59;36.60;98793.94;5053616;28;20037;-76
2022/09/16 07:49:46;;;;;;;7.90;4.57;;;;;;;28.92;36.19;98835.13;5053519;28;20467;-76
2022/09/16 07:52:12;;;;;;;8.85;5.20;;;;;;;29.13;36.16;98851.69;5052337;28;20390;-77
2022/09/16 07:54:37;;;;;;;16.08;14.18;;;;;;;28.65;36.84;98754.66;5053272;28;20052;-77
2022/09/16 07:57:03;;;;;;;7.72;6.60;;;;;;;29.26;36.53;98831.69;5051541;28;20490;-77
2022/09/16 07:59:28;;;;;;;10.27;8.70;;;;;;;28.98;37.14;98782.22;5051417;28;20409;-77
2022/09/16 08:01:54;;;;;;;9.10;7.00;;;;;;;29.15;37.08;98808.66;5049945;28;20504;-78
2022/09/16 08:04:20;;;;;;;9.68;6.28;;;;;;;29.17;36.91;98785.47;5043397;28;20028;-78
2022/09/16 08:06:46;;;;;;;12.60;5.65;;;;;;;28.83;36.52;98731.81;5051803;28;20029;-77
2022/09/16 08:09:11;;;;;;;7.82;4.80;;;;;;;29.37;36.42;98805.78;5050983;28;20448;-77
2022/09/16 08:11:36;;;;;;;8.30;4.85;;;;;;;29.67;35.70;98842.16;5051248;28;20494;-77
2022/09/16 08:14:02;;;;;;;12.05;6.00;;;;;;;29.61;35.67;98808.06;5052987;28;20029;-77
2022/09/16 08:16:28;;;;;;;10.13;6.05;;;;;;;29.78;35.32;98821.69;5051083;28;20032;-77
2022/09/16 08:18:56;;;;;;;8.48;5.38;;;;;;;29.99;34.47;98829.97;5052582;28;20033;-77
2022/09/16 08:21:24;;;;;;;11.27;5.70;;;;;;;30.11;33.37;98832.84;5047959;28;20029;-77
2022/09/16 08:23:50;;;;;;;11.35;7.68;;;;;;;30.19;33.21;98826.59;5044622;28;20025;-78
2022/09/16 08:26:17;;;;;;;10.63;7.18;;;;;;;30.27;33.04;98825.75;5045947;28;20036;-77
2022/09/16 08:28:44;;;;;;;11.30;6.85;;;;;;;30.36;33.43;98826.53;5053081;28;20028;-77
2022/09/16 08:31:10;;;;;;;9.27;4.05;;;;;;;30.18;32.89;98780.63;5052315;28;20044;-77
2022/09/16 08:33:38;;;;;;;6.10;4.03;;;;;;;30.18;33.02;98769.72;5052876;28;20021;-77
2022/09/16 08:36:09;;;;;;;10.45;5.47;;;;;;;30.60;32.40;98811.59;5047086;28;20033;-78
2022/09/16 08:38:34;;;;;;;10.85;6.38;;;;;;;30.61;32.77;98805.00;5039776;28;20025;-78
2022/09/16 08:41:18;;;;;;;8.20;5.32;;;;;;;30.73;32.64;98812.50;5050438;28;20052;-77
2022/09/16 08:44:10;;;;;;;9.45;4.07;;;;;;;30.58;31.95;98781.13;5051800;28;20456;-77
2022/09/16 08:46:56;;;;;;;14.40;6.80;;;;;;;30.88;31.53;98810.00;5052523;28;20453;-77
2022/09/16 08:49:37;;;;;;;11.95;4.60;;;;;;;30.94;31.16;98816.84;5051263;28;20433;-77
2022/09/16 08:52:08;;;;;;;;;;;;;;;30.81;30.86;98807.00;5047339;28;20452;-77
2022/09/16 08:54:45;;;;;;;10.45;4.93;;;;;;;30.93;31.42;98809.00;5051154;28;19912;-77
2022/09/16 08:57:33;;;;;;;6.13;4.05;;;;;;;31.02;31.04;98806.22;5052608;28;20081;-77
2022/09/16 09:00:19;;;;;;;9.13;4.82;;;;;;;31.13;30.56;98818.34;5051230;28;20025;-77
2022/09/16 09:02:53;;;;;;;10.52;5.03;;;;;;;31.24;30.47;98814.16;5052081;28;20567;-77
2022/09/16 09:05:35;;;;;;;14.00;5.95;;;;;;;31.40;30.17;98812.41;5048723;28;20068;-77
2022/09/16 09:08:11;;;;;;;8.18;5.00;;;;;;;31.50;30.44;98801.09;5032830;28;20033;-77
2022/09/16 09:11:01;;;;;;;8.90;4.07;;;;;;;31.59;30.34;98779.97;5046675;28;20086;-77
2022/09/16 09:13:36;;;;;;;13.10;7.35;;;;;;;31.99;29.80;98808.72;5052239;28;20532;-77
2022/09/16 09:16:20;;;;;;;7.88;4.22;;;;;;;32.19;28.83;98792.25;5051840;28;20028;-77
2022/09/16 09:19:01;;;;;;;7.65;5.30;;;;;;;32.47;29.31;98797.91;5050242;28;20088;-77
2022/09/16 09:22:01;;;;;;;11.82;4.03;;;;;;;32.39;28.54;98749.63;5051668;28;20029;-77
2022/09/16 09:24:35;;;;;;;17.15;11.70;;;;;;;32.84;28.24;98774.13;5031459;28;20048;-77
2022/09/16 09:27:14;;;;;;;11.75;5.13;;;;;;;33.06;28.06;98770.09;5031813;28;20410;-76
2022/09/16 09:30:02;;;;;;;9.43;4.32;;;;;;;32.78;27.63;98687.22;5032010;28;20017;-78
2022/09/16 09:32:36;;;;;;;11.13;5.47;;;;;;;33.48;27.50;98770.59;5032049;28;20246;-76
2022/09/16 09:35:11;;;;;;;14.55;5.82;;;;;;;33.41;27.12;98734.78;5031836;28;20030;-76
2022/09/16 09:38:03;;;;;;;10.45;3.55;;;;;;;33.81;26.48;98761.31;5031835;28;20156;-76
2022/09/16 09:40:38;;;;;;;11.55;3.92;;;;;;;33.97;26.55;98769.56;5043340;28;20140;-76
2022/09/16 09:43:31;;;;;;;19.83;8.48;;;;;;;34.12;26.22;98768.78;5051164;28;20498;-76
2022/09/16 09:46:03;;;;;;;14.52;8.52;;;;;;;34.11;25.97;98751.56;5051851;28;20410;-76
2022/09/16 09:48:39;;;;;;;18.83;9.73;;;;;;;34.09;26.39;98740.16;5051807;28;20489;-77
2022/09/16 09:51:14;;;;;;;12.60;6.35;;;;;;;34.24;26.24;98724.09;5051621;28;20028;-76
2022/09/16 09:53:45;;;;;;;46.45;8.20;;;;;;;34.63;26.25;98760.69;5050443;28;20049;-76
2022/09/16 09:56:24;;;;;;;10.77;4.40;;;;;;;34.56;26.05;98725.66;5048312;28;20411;-76
2022/09/16 09:58:52;;;;;;;13.00;5.35;;;;;;;34.81;25.79;98752.84;5031451;28;20066;-77
2022/09/16 10:01:17;;;;;;;10.20;3.67;;;;;;;34.49;25.83;98695.34;5031273;28;20025;-76
2022/09/16 10:03:44;;;;;;;11.60;4.03;;;;;;;34.68;25.35;98694.59;5041263;28;20505;-76
2022/09/16 10:06:11;;;;;;;13.27;5.13;;;;;;;35.31;25.04;98741.03;5050217;28;20028;-76
2022/09/16 10:08:49;;;;;;;11.63;5.18;;;;;;;35.27;25.11;98719.00;5049245;28;20025;-77
2022/09/16 10:11:19;;;;;;;9.35;4.82;;;;;;;35.54;25.21;98730.13;5047922;28;20521;-77
2022/09/16 10:13:50;;;;;;;11.93;3.58;;;;;;;35.36;25.19;98672.16;5046734;28;20485;-77
2022/09/16 10:16:19;;;;;;;;;;;;;;;35.74;24.98;98723.47;5048501;28;20043;-76
2022/09/16 10:18:58;;;;;;;9.15;3.40;;;;;;;35.73;24.38;98686.19;5051342;28;19965;-76
2022/09/16 10:21:24;;;;;;;8.23;3.28;;;;;;;35.72;24.66;98701.06;5050721;28;20567;-76
2022/09/16 10:23:56;;;;;;;8.50;3.83;;;;;;;35.61;24.91;98684.38;5050839;28;20031;-76
2022/09/16 10:26:27;;;;;;;12.55;5.20;;;;;;;35.90;24.62;98710.44;5048133;28;20032;-76
2022/09/16 10:29:14;;;;;;;10.45;4.00;;;;;;;35.98;24.55;98709.41;5048012;28;20482;-76
2022/09/16 10:31:41;;;;;;;12.25;3.40;;;;;;;35.85;24.29;98669.53;5037091;28;20486;-76
2022/09/16 10:34:35;;;;;;;8.30;3.08;;;;;;;36.18;23.24;98712.06;5046239;28;20071;-77
2022/09/16 10:37:19;;;;;;;10.88;4.13;;;;;;;36.09;23.79;98676.59;5031374;28;20127;-76
2022/09/16 10:39:57;;;;;;;13.18;4.03;;;;;;;35.87;23.87;98630.72;5041891;28;20036;-77
2022/09/16 10:42:26;;;;;;;8.40;3.58;;;;;;;36.12;23.96;98677.81;5049398;28;20024;-76
2022/09/16 10:45:13;;;;;;;14.27;4.00;;;;;;;36.19;24.27;98661.44;5049752;28;20025;-76
2022/09/16 10:47:39;;;;;;;8.18;3.40;;;;;;;36.41;24.33;98677.13;5033727;28;20029;-76
2022/09/16 10:50:06;;;;;;;10.35;3.35;;;;;;;36.36;24.34;98649.94;5046892;28;20056;-76
2022/09/16 10:52:43;;;;;;;11.68;3.45;;;;;;;36.60;23.73;98684.47;5037218;28;20464;-76
2022/09/16 10:55:35;;;;;;;14.35;4.88;;;;;;;36.66;22.75;98676.69;5033807;28;20044;-77
2022/09/16 10:58:09;;;;;;;11.00;3.67;;;;;;;36.72;23.46;98684.25;5034782;28;20048;-76
2022/09/16 11:01:06;;;;;;;11.77;3.70;;;;;;;36.68;23.27;98655.91;5033318;28;20514;-76
2022/09/16 11:03:50;;;;;;;14.27;4.55;;;;;;;36.74;23.17;98675.63;5043692;28;20041;-76
2022/09/16 11:06:26;;;;;;;11.82;3.63;;;;;;;36.55;23.65;98643.56;5035046;28;20017;-76
2022/09/16 11:09:00;;;;;;;16.75;4.80;;;;;;;36.55;23.03;98654.56;5033291;28;20421;-76
2022/09/16 11:11:59;;;;;;;11.68;4.65;;;;;;;36.77;22.67;98670.19;5035080;28;20025;-76
2022/09/16 11:14:55;;;;;;;13.77;5.30;;;;;;;36.82;23.08;98666.34;5035238;28;20022;-76
2022/09/16 11:17:42;;;;;;;13.35;5.93;;;;;;;36.90;23.18;98652.28;5042545;28;20028;-76
2022/09/16 11:20:31;;;;;;;8.77;3.55;;;;;;;36.87;22.52;98650.28;5044601;28;20151;-76
2022/09/16 11:23:22;;;;;;;13.02;4.18;;;;;;;36.65;23.01;98642.09;5038185;28;20033;-76
2022/09/16 11:26:06;;;;;;;14.10;4.15;;;;;;;36.08;23.04;98595.31;5034489;28;20078;-76
2022/09/16 11:28:50;;;;;;;13.77;5.00;;;;;;;36.12;23.32;98645.63;5032884;28;20029;-77
2022/09/16 11:31:47;;;;;;;12.85;6.85;;;;;;;35.97;24.10;98639.13;5033979;28;20029;-76
2022/09/16 11:34:46;;;;;;;11.32;4.80;;;;;;;35.82;24.50;98640.06;5033884;28;20028;-76
2022/09/16 11:37:45;;;;;;;12.68;4.65;;;;;;;35.86;24.76;98637.38;5033953;28;20096;-76
2022/09/16 11:40:33;;;;;;;12.35;3.58;;;;;;;35.88;23.91;98578.16;5033910;28;20041;-76
2022/09/16 11:43:04;;;;;;;12.15;3.60;;;;;;;36.54;23.63;98618.00;5043440;28;20020;-76
2022/09/16 11:45:42;;;;;;;13.10;3.58;;;;;;;36.73;23.60;98614.31;5064472;28;20029;-75
2022/09/16 11:48:47;;;;;;;11.63;4.40;;;;;;;36.91;23.29;98607.09;5056006;28;20021;-76
2022/09/16 11:51:59;;;;;;;12.68;3.95;;;;;;;37.06;22.65;98597.03;5052010;28;20474;-76
2022/09/16 11:54:30;;;;;;;14.98;5.40;;;;;;;37.01;23.25;98580.84;5053892;28;20396;-76